Seaspan Osprey — CFN6644 — position and weather

sailwx.info

Track history (hours):
 
Tides and Currents Weather Stations Pressure Air Temp Water Temp Dewpoint Dewpoint Depression Visibility Wind Speed Wind Dir Waves Ship Positions

Seaspan Osprey

Last reported at 2017-Oct-19 03:30 UTC. Time now 2017-Oct-19 03:46 UTC.
Position N 49°01' W 123°09'.

Length 26 m; draft 5.4 m.

Type: Tug. MMSI: 316020868.

Date/timePositionNaut miles runAvg speedWind from/ knotsBaromVisibWave heightAir tempDewpointWater temp
2017-Oct-19 03:30N 49°01' W 123°09'0 0.0
2017-Oct-19 03:00N 49°01' W 123°09'0 0.0
2017-Oct-19 02:30N 49°01' W 123°09'0 0.0
2017-Oct-19 02:00N 49°01' W 123°09'0 0.0
2017-Oct-19 01:30N 49°01' W 123°09'0 0.0
2017-Oct-19 01:00N 49°01' W 123°09'0 0.5
2017-Oct-19 00:10N 49°01' W 123°09'0 0.2
2017-Oct-19 00:00N 49°01' W 123°09'1 2.3
2017-Oct-18 23:29N 48°60' W 123°10'2 3.5
2017-Oct-18 23:00N 49°01' W 123°09'0 0.1
2017-Oct-18 22:30N 49°01' W 123°09'0 0.0
2017-Oct-18 22:00N 49°01' W 123°09'0 0.0
2017-Oct-18 21:30N 49°01' W 123°09'0 0.0
2017-Oct-18 21:00N 49°01' W 123°09'0 0.0
2017-Oct-18 20:30N 49°01' W 123°09'0 0.0
2017-Oct-18 20:00N 49°01' W 123°09'0 0.0
2017-Oct-18 19:30N 49°01' W 123°09'0 0.0
2017-Oct-18 19:00N 49°01' W 123°09'0 0.0
2017-Oct-18 18:30N 49°01' W 123°09'0 0.0
2017-Oct-18 18:00N 49°01' W 123°09'0 0.0
2017-Oct-18 17:30N 49°01' W 123°09'0 0.0
2017-Oct-18 17:00N 49°01' W 123°09'0 0.0
2017-Oct-18 16:30N 49°01' W 123°09'0 0.0
2017-Oct-18 16:00N 49°01' W 123°09'0 0.0
2017-Oct-18 15:30N 49°01' W 123°09'0 0.0
2017-Oct-18 15:00N 49°01' W 123°09'0 0.0
2017-Oct-18 14:00N 49°01' W 123°09'0 0.4
2017-Oct-18 13:20N 49°01' W 123°09'0 0.3
2017-Oct-18 13:00N 49°01' W 123°09'0 0.5
2017-Oct-18 12:30N 49°01' W 123°09'0 0.0
2017-Oct-18 12:00N 49°01' W 123°09'0 0.0
2017-Oct-18 11:30N 49°01' W 123°09'0 0.0
2017-Oct-18 11:00N 49°01' W 123°09'0 0.0
2017-Oct-18 10:28N 49°01' W 123°09'0 0.0
2017-Oct-18 10:00N 49°01' W 123°09'0 0.0
2017-Oct-18 09:29N 49°01' W 123°09'0 0.0
2017-Oct-18 09:00N 49°01' W 123°09'1 1.2
2017-Oct-18 07:55N 49°01' W 123°10'1 1.2
2017-Oct-18 07:30N 49°01' W 123°11'1 0.5
2017-Oct-18 06:10N 49°01' W 123°10'1 4.9
2017-Oct-18 06:00N 49°01' W 123°09'0 0.9
2017-Oct-18 05:28N 49°01' W 123°09'0 0.0
2017-Oct-18 05:00N 49°01' W 123°09'0 0.0
2017-Oct-18 04:30N 49°01' W 123°09'0 0.0
2017-Oct-18 03:59N 49°01' W 123°09'0 0.0
2017-Oct-18 03:30N 49°01' W 123°09'0 0.0
2017-Oct-18 03:00N 49°01' W 123°09'0 0.0
2017-Oct-18 02:30N 49°01' W 123°09'0 0.0
2017-Oct-18 02:00N 49°01' W 123°09'0 0.4
2017-Oct-18 01:30N 49°01' W 123°09'0 0.0
2017-Oct-18 01:00N 49°01' W 123°09'2 2.8
2017-Oct-18 00:25N 48°60' W 123°10'1 1.7
2017-Oct-18 00:00N 49°00' W 123°09'1 2.0
2017-Oct-17 23:23N 49°01' W 123°09'0 0.0
2017-Oct-17 23:00N 49°01' W 123°09'0 0.0
2017-Oct-17 22:19N 49°01' W 123°09'0 0.0
2017-Oct-17 22:00N 49°01' W 123°09'0 0.0
2017-Oct-17 21:30N 49°01' W 123°09'0 0.0
2017-Oct-17 20:59N 49°01' W 123°09'0 0.0
2017-Oct-17 20:30N 49°01' W 123°09'0 0.0
2017-Oct-17 19:59N 49°01' W 123°09'0 0.0
2017-Oct-17 19:29N 49°01' W 123°09'0 0.0
2017-Oct-17 19:00N 49°01' W 123°09'0 0.0
2017-Oct-17 18:30N 49°01' W 123°09'0 0.0
2017-Oct-17 18:00N 49°01' W 123°09'0 0.0
2017-Oct-17 17:30N 49°01' W 123°09'0 0.0
2017-Oct-17 17:00N 49°01' W 123°09'1 2.2
2017-Oct-17 16:24N 49°00' W 123°10'1 2.5
2017-Oct-17 15:57N 49°01' W 123°09'0 0.4
2017-Oct-17 15:30N 49°01' W 123°09'0 0.0
2017-Oct-17 15:00N 49°01' W 123°09'0 0.0
2017-Oct-17 14:29N 49°01' W 123°09'0 0.0
2017-Oct-17 14:00N 49°01' W 123°09'0 0.0
2017-Oct-17 13:30N 49°01' W 123°09'0 0.0
2017-Oct-17 13:00N 49°01' W 123°09'0 0.0
2017-Oct-17 12:30N 49°01' W 123°09'0 0.0
2017-Oct-17 12:00N 49°01' W 123°09'0 0.0
2017-Oct-17 11:29N 49°01' W 123°09'0 0.0
2017-Oct-17 10:59N 49°01' W 123°09'0 0.0
2017-Oct-17 10:29N 49°01' W 123°09'0 0.0
2017-Oct-17 10:00N 49°01' W 123°09'0 0.0
2017-Oct-17 09:30N 49°01' W 123°09'0 0.0
2017-Oct-17 09:00N 49°01' W 123°09'0 0.0
2017-Oct-17 08:26N 49°01' W 123°09'0 0.0
2017-Oct-17 08:00N 49°01' W 123°09'0 0.0
2017-Oct-17 07:30N 49°01' W 123°09'0 0.0
2017-Oct-17 07:00N 49°01' W 123°09'0 0.0
2017-Oct-17 06:30N 49°02' W 123°09'0 0.9
2017-Oct-17 06:00N 49°01' W 123°09'1 1.6
2017-Oct-17 05:30N 49°00' W 123°10'0 0.5
2017-Oct-17 05:00N 49°00' W 123°10'1 3.0
2017-Oct-17 04:30N 49°01' W 123°09'0 0.0
2017-Oct-17 04:00N 49°01' W 123°09'0 0.0
2017-Oct-17 03:30N 49°01' W 123°09'0 0.0
2017-Oct-17 03:00N 49°01' W 123°09'0 0.0
2017-Oct-17 02:29N 49°01' W 123°09'0 0.0
2017-Oct-17 02:00N 49°01' W 123°09'0 0.0
2017-Oct-17 01:30N 49°01' W 123°09'0 0.0
2017-Oct-17 01:00N 49°01' W 123°09'0 0.0
2017-Oct-17 00:30N 49°01' W 123°09'0 0.0
2017-Oct-17 00:00N 49°01' W 123°09'0 0.0
2017-Oct-16 23:30N 49°01' W 123°09'0 0.0
2017-Oct-16 23:00N 49°01' W 123°09'0 0.0
2017-Oct-16 22:30N 49°01' W 123°09'0 0.0
2017-Oct-16 22:00N 49°01' W 123°09'0 0.0
2017-Oct-16 21:30N 49°01' W 123°09'0 0.0
2017-Oct-16 21:00N 49°01' W 123°09'0 0.0
2017-Oct-16 20:30N 49°01' W 123°09'0 0.0
2017-Oct-16 20:00N 49°01' W 123°09'0 0.0
2017-Oct-16 19:30N 49°01' W 123°09'0 0.0
2017-Oct-16 19:00N 49°01' W 123°09'0 0.0
2017-Oct-16 18:30N 49°01' W 123°09'0 0.0
2017-Oct-16 18:00N 49°01' W 123°09'0 0.0
2017-Oct-16 17:30N 49°01' W 123°09'0 0.0
2017-Oct-16 17:00N 49°01' W 123°09'0 0.0
2017-Oct-16 16:30N 49°01' W 123°09'0 0.0
2017-Oct-16 16:00N 49°01' W 123°09'0 0.5
2017-Oct-16 15:04N 49°01' W 123°09'0 1.8
2017-Oct-16 14:58N 49°01' W 123°09'1 1.2
2017-Oct-16 14:29N 49°00' W 123°10'1 0.9
2017-Oct-16 13:26N 48°60' W 123°10'2 3.0
2017-Oct-16 12:52N 49°01' W 123°09'0 0.3
2017-Oct-16 12:30N 49°01' W 123°09'0 0.0
2017-Oct-16 12:01N 49°01' W 123°09'0 0.7
2017-Oct-16 11:31N 49°01' W 123°09'0 0.0
2017-Oct-16 11:00N 49°01' W 123°09'0 0.0
2017-Oct-16 10:30N 49°01' W 123°09'0 0.0
2017-Oct-16 10:01N 49°01' W 123°09'0 0.0
2017-Oct-16 09:31N 49°01' W 123°09'0 0.0
2017-Oct-16 09:00N 49°01' W 123°09'0 0.0
2017-Oct-16 08:31N 49°01' W 123°09'0 0.0
2017-Oct-16 08:01N 49°01' W 123°09'0 0.0
2017-Oct-16 07:21N 49°01' W 123°09'0 0.0
2017-Oct-16 07:00N 49°01' W 123°09'0 0.0
2017-Oct-16 06:30N 49°01' W 123°09'0 0.0
2017-Oct-16 06:00N 49°01' W 123°09'0 0.0
2017-Oct-16 05:30N 49°01' W 123°09'0 0.0
2017-Oct-16 05:01N 49°01' W 123°09'0 0.0
2017-Oct-16 04:30N 49°01' W 123°09'0 0.0
2017-Oct-16 04:00N 49°01' W 123°09'0 0.0
2017-Oct-16 03:31N 49°01' W 123°09'0 0.0
2017-Oct-16 03:00N 49°01' W 123°09'0 0.0
2017-Oct-16 02:30N 49°01' W 123°09'0 0.0
2017-Oct-16 02:00N 49°01' W 123°09'0 0.0
2017-Oct-16 01:31N 49°01' W 123°09'0 0.4
2017-Oct-16 01:00N 49°01' W 123°09'0 0.5
2017-Oct-16 00:27N 49°01' W 123°09'0 1.0
2017-Oct-16 00:01N 49°01' W 123°09'0 0.0
2017-Oct-15 23:31N 49°01' W 123°09'0 0.0
2017-Oct-15 23:00N 49°01' W 123°09'0 0.0
2017-Oct-15 22:31N 49°01' W 123°09'0 0.0
2017-Oct-15 21:58N 49°01' W 123°09'0 0.0
2017-Oct-15 21:30N 49°01' W 123°09'0 0.0
2017-Oct-15 20:58N 49°01' W 123°09'0 0.0
2017-Oct-15 20:30N 49°01' W 123°09'0 0.0
2017-Oct-15 20:00N 49°01' W 123°09'0 0.0
2017-Oct-15 19:31N 49°01' W 123°09'0 0.0
2017-Oct-15 19:01N 49°01' W 123°09'0 0.0
2017-Oct-15 18:31N 49°01' W 123°09'0 0.0
2017-Oct-15 18:00N 49°01' W 123°09'0 0.0
2017-Oct-15 17:31N 49°01' W 123°09'0 0.0
2017-Oct-15 17:01N 49°01' W 123°09'1 1.2
2017-Oct-15 16:28N 49°01' W 123°09'0 0.1
2017-Oct-15 15:57N 49°01' W 123°09'1 1.5
2017-Oct-15 15:30N 49°01' W 123°09'0 0.0
2017-Oct-15 15:00N 49°01' W 123°09'0 0.0
2017-Oct-15 14:00N 49°01' W 123°09'0 0.0
2017-Oct-15 13:30N 49°01' W 123°09'0 0.0
2017-Oct-15 13:00N 49°01' W 123°09'0 0.0
2017-Oct-15 12:30N 49°01' W 123°09'0 0.0
2017-Oct-15 12:01N 49°01' W 123°09'0 0.0
2017-Oct-15 11:31N 49°01' W 123°09'0 0.0
2017-Oct-15 11:01N 49°01' W 123°09'0 0.0
2017-Oct-15 10:31N 49°01' W 123°09'0 0.0
2017-Oct-15 10:01N 49°01' W 123°09'0 0.0
2017-Oct-15 09:31N 49°01' W 123°09'0 0.0
2017-Oct-15 09:00N 49°01' W 123°09'0 0.0
2017-Oct-15 08:31N 49°01' W 123°09'0 0.0
2017-Oct-15 08:00N 49°01' W 123°09'0 0.0
2017-Oct-15 07:30N 49°01' W 123°09'0 0.0
2017-Oct-15 07:00N 49°01' W 123°09'0 0.0
2017-Oct-15 06:30N 49°01' W 123°09'0 0.0
2017-Oct-15 06:01N 49°01' W 123°09'0 0.0
2017-Oct-15 05:30N 49°01' W 123°09'0 0.0
2017-Oct-15 05:00N 49°01' W 123°09'0 0.0
2017-Oct-15 04:30N 49°01' W 123°09'0 0.0
2017-Oct-15 04:01N 49°01' W 123°09'0 0.0
2017-Oct-15 03:30N 49°01' W 123°09'0 0.0
2017-Oct-15 03:00N 49°01' W 123°09'0 0.0
2017-Oct-15 02:31N 49°01' W 123°09'0 0.0
2017-Oct-15 02:01N 49°01' W 123°09'0 0.0
2017-Oct-15 01:31N 49°01' W 123°09'0 0.0
2017-Oct-15 01:00N 49°01' W 123°09'0 0.0
2017-Oct-15 00:30N 49°01' W 123°09'0 0.0
2017-Oct-15 00:01N 49°01' W 123°09'0 0.0
2017-Oct-14 23:31N 49°01' W 123°09'2 1.0
2017-Oct-14 21:14N 48°60' W 123°11'1 5.0
2017-Oct-14 20:57N 49°01' W 123°09'1 1.9
2017-Oct-14 20:26N 49°01' W 123°09'0 0.0
2017-Oct-14 20:00N 49°01' W 123°09'1 3.0
2017-Oct-14 19:30N 49°00' W 123°10'0 0.6
2017-Oct-14 18:59N 49°01' W 123°10'1 2.1
2017-Oct-14 18:26N 49°01' W 123°09'0 0.0
2017-Oct-14 17:58N 49°01' W 123°09'0 0.0
2017-Oct-14 17:27N 49°01' W 123°09'0 0.0
2017-Oct-14 16:59N 49°01' W 123°09'0 0.0
2017-Oct-14 16:18N 49°01' W 123°09'0 0.0
2017-Oct-14 15:59N 49°01' W 123°09'0 0.0
2017-Oct-14 15:30N 49°01' W 123°09'0 0.0
2017-Oct-14 14:59N 49°01' W 123°09'0 0.0
2017-Oct-14 14:29N 49°01' W 123°09'0 0.0
2017-Oct-14 13:59N 49°01' W 123°09'0 0.0
2017-Oct-14 13:28N 49°01' W 123°09'0 0.0
2017-Oct-14 12:33N 49°01' W 123°09'0 0.1
2017-Oct-14 12:30N 49°01' W 123°09'0 0.0
2017-Oct-14 12:00N 49°01' W 123°09'0 0.7
2017-Oct-14 11:30N 49°01' W 123°09'0 0.2
2017-Oct-14 11:00N 49°01' W 123°09'1 2.8
2017-Oct-14 10:30N 48°60' W 123°09'2 3.7
2017-Oct-14 09:59N 49°01' W 123°09'0 0.0
2017-Oct-14 04:45N 49°01' W 123°09'0 0.0
2017-Oct-14 04:30N 49°01' W 123°09'0 0.0
2017-Oct-14 03:27N 49°01' W 123°09'1 1.4
2017-Oct-14 03:00N 49°01' W 123°09'0 0.1
2017-Oct-14 02:27N 49°01' W 123°09'1 2.4
2017-Oct-14 02:00N 49°00' W 123°10'1 2.2
2017-Oct-14 01:27N 49°01' W 123°09'1 0.4
2017-Oct-13 23:03N 49°01' W 123°10'0 1.6
2017-Oct-13 22:46N 49°01' W 123°11'1 2.5
2017-Oct-13 22:30N 49°00' W 123°12'2 0.3
2017-Oct-13 16:08N 49°01' W 123°09'2 7.4
2017-Oct-13 15:56N 49°00' W 123°10'1 2.1
2017-Oct-13 15:23N 49°01' W 123°09'0 0.1
2017-Oct-13 15:00N 49°01' W 123°09'0 0.1
2017-Oct-13 12:18N 49°01' W 123°09'0 0.0
2017-Oct-13 09:21N 49°01' W 123°09'0 0.0
2017-Oct-13 08:55N 49°01' W 123°09'0 0.0
2017-Oct-13 06:07N 49°01' W 123°09'0 2.2
2017-Oct-13 06:00N 49°01' W 123°09'1 0.9
2017-Oct-13 05:18N 49°01' W 123°09'1 2.9
2017-Oct-13 05:00N 49°01' W 123°09'0 0.0
2017-Oct-13 01:24N 49°01' W 123°09'1 1.6
2017-Oct-13 00:59N 49°01' W 123°09'0 0.0
2017-Oct-13 00:23N 49°01' W 123°09'0 0.7
2017-Oct-12 23:59N 49°01' W 123°09'1 2.7
2017-Oct-12 23:29N 49°00' W 123°11'1 1.7
2017-Oct-12 23:00N 49°00' W 123°10'1 1.4
2017-Oct-12 22:23N 49°01' W 123°09'0 0.1
2017-Oct-12 22:00N 49°01' W 123°09'1 1.3
2017-Oct-12 21:30N 49°01' W 123°09'0 0.0
2017-Oct-12 21:00N 49°01' W 123°09'0 0.0
2017-Oct-12 20:30N 49°01' W 123°09'0 0.0
2017-Oct-12 20:00N 49°01' W 123°09'2 3.0
2017-Oct-12 19:30N 49°00' W 123°10'1 2.5
2017-Oct-12 18:58N 49°01' W 123°09'0 0.7
2017-Oct-12 18:30N 49°02' W 123°09'0 0.1
2017-Oct-12 18:01N 49°01' W 123°09'0 0.0
2017-Oct-12 17:30N 49°01' W 123°09'0 0.4
2017-Oct-12 17:00N 49°01' W 123°09'0 0.4
2017-Oct-12 16:28N 49°01' W 123°09'0 0.0
2017-Oct-12 16:00N 49°01' W 123°09'0 0.0
2017-Oct-12 15:31N 49°01' W 123°09'0 0.0
2017-Oct-12 15:00N 49°01' W 123°09'0 0.0
2017-Oct-12 14:30N 49°01' W 123°09'0 0.0
2017-Oct-12 13:59N 49°01' W 123°09'0 0.0
2017-Oct-12 13:30N 49°01' W 123°09'0 0.0
2017-Oct-12 13:00N 49°01' W 123°09'0 0.0
2017-Oct-12 12:27N 49°01' W 123°09'0 0.0
2017-Oct-12 11:54N 49°01' W 123°09'0 0.0
2017-Oct-12 11:30N 49°01' W 123°09'0 0.0
2017-Oct-12 11:00N 49°01' W 123°09'0 0.0
2017-Oct-12 10:30N 49°01' W 123°09'0 0.0
2017-Oct-12 10:00N 49°01' W 123°09'0 0.0
2017-Oct-12 09:30N 49°01' W 123°09'0 0.0
2017-Oct-12 09:00N 49°01' W 123°09'0 0.0
2017-Oct-12 08:30N 49°01' W 123°09'0 0.0
2017-Oct-12 08:00N 49°01' W 123°09'0 0.0
2017-Oct-12 07:30N 49°01' W 123°09'0 0.0
2017-Oct-12 07:00N 49°01' W 123°09'0 0.0
2017-Oct-12 06:30N 49°01' W 123°09'0 0.0
2017-Oct-12 06:00N 49°01' W 123°09'0 0.0
2017-Oct-12 05:30N 49°01' W 123°09'0 0.0
2017-Oct-12 05:00N 49°01' W 123°09'0 0.0
2017-Oct-12 04:31N 49°01' W 123°09'0 0.0
2017-Oct-12 04:00N 49°01' W 123°09'0 0.0
2017-Oct-12 03:30N 49°01' W 123°09'0 0.0
2017-Oct-12 03:00N 49°01' W 123°09'0 0.0
2017-Oct-12 02:31N 49°01' W 123°09'0 0.0
2017-Oct-12 02:01N 49°01' W 123°09'0 0.0
2017-Oct-12 01:30N 49°01' W 123°09'1 2.5
2017-Oct-12 00:56N 49°00' W 123°10'1 2.0
2017-Oct-12 00:30N 49°01' W 123°09'1 1.1
2017-Oct-12 00:00N 49°01' W 123°09'0 0.0
2017-Oct-11 23:30N 49°01' W 123°09'0 0.0
2017-Oct-11 23:00N 49°01' W 123°09'0 0.3
2017-Oct-11 21:54N 49°01' W 123°09'1 1.5
2017-Oct-11 21:29N 49°01' W 123°09'3 5.0
2017-Oct-11 20:55N 48°58' W 123°09'3 6.1
2017-Oct-11 20:30N 49°00' W 123°09'1 2.6
2017-Oct-11 20:00N 49°01' W 123°09'0 0.0
2017-Oct-11 19:30N 49°01' W 123°09'0 0.0
2017-Oct-11 19:00N 49°01' W 123°09'0 0.0
2017-Oct-11 18:30N 49°01' W 123°09'0 0.0
2017-Oct-11 18:00N 49°01' W 123°09'0 0.0
2017-Oct-11 17:30N 49°01' W 123°09'0 0.0
2017-Oct-11 17:00N 49°01' W 123°09'0 0.0
2017-Oct-11 00:00N 49°01' W 123°09'0 0.0
2017-Oct-10 23:30N 49°01' W 123°09'0 0.0
2017-Oct-10 23:00N 49°01' W 123°09'0 0.0
2017-Oct-10 22:30N 49°01' W 123°09'0 0.0
2017-Oct-10 22:00N 49°01' W 123°09'0 0.0
2017-Oct-10 21:16N 49°01' W 123°09'0 0.0
2017-Oct-10 21:00N 49°01' W 123°09'0 0.0
2017-Oct-10 20:30N 49°01' W 123°09'0 0.0
2017-Oct-10 20:00N 49°01' W 123°09'0 0.0
2017-Oct-10 19:30N 49°01' W 123°09'0 0.0
2017-Oct-10 19:00N 49°01' W 123°09'0 0.0
2017-Oct-10 18:30N 49°01' W 123°09'0 0.0
2017-Oct-10 18:00N 49°01' W 123°09'0 0.0
2017-Oct-10 17:30N 49°01' W 123°09'0 0.0
2017-Oct-10 17:00N 49°01' W 123°09'0 0.0
2017-Oct-10 16:30N 49°01' W 123°09'0 0.0
2017-Oct-10 16:00N 49°01' W 123°09'0 0.0
2017-Oct-10 15:30N 49°01' W 123°09'0 0.0
2017-Oct-10 15:00N 49°01' W 123°09'0 0.0
2017-Oct-10 14:00N 49°01' W 123°09'0 0.0
2017-Oct-10 13:30N 49°01' W 123°09'0 0.0
2017-Oct-10 13:00N 49°01' W 123°09'0 0.0
2017-Oct-10 12:30N 49°01' W 123°09'0 0.0
2017-Oct-10 12:00N 49°01' W 123°09'0 0.0
2017-Oct-10 11:30N 49°01' W 123°09'0 0.0
2017-Oct-10 11:00N 49°01' W 123°09'1 2.6
2017-Oct-10 10:26N 49°00' W 123°10'1 2.3
2017-Oct-10 09:59N 49°01' W 123°09'1 1.4
2017-Oct-10 09:24N 49°01' W 123°10'1 1.4
2017-Oct-10 09:00N 49°01' W 123°09'0 0.0
2017-Oct-10 08:23N 49°01' W 123°09'0 0.3
2017-Oct-10 07:52N 49°01' W 123°09'1 2.2
2017-Oct-10 07:30N 49°00' W 123°10'1 1.4
2017-Oct-10 06:44N 49°01' W 123°09'1 2.2
2017-Oct-10 06:30N 49°01' W 123°09'0 0.0
2017-Oct-10 05:59N 49°01' W 123°09'0 0.0
2017-Oct-10 05:30N 49°01' W 123°09'0 0.0
2017-Oct-10 05:00N 49°01' W 123°09'0 0.0
2017-Oct-10 04:30N 49°01' W 123°09'0 0.0
2017-Oct-10 04:00N 49°01' W 123°09'0 0.0
2017-Oct-10 03:30N 49°01' W 123°09'0 0.0
2017-Oct-10 03:00N 49°01' W 123°09'0 0.0
2017-Oct-10 02:30N 49°01' W 123°09'0 0.0
2017-Oct-10 02:00N 49°01' W 123°09'0 0.0
2017-Oct-10 01:30N 49°01' W 123°09'0 0.0
2017-Oct-10 01:00N 49°01' W 123°09'0 0.0
2017-Oct-10 00:30N 49°01' W 123°09'0 0.0
2017-Oct-10 00:00N 49°01' W 123°09'0 0.0
2017-Oct-09 23:30N 49°01' W 123°09'0 0.0
2017-Oct-09 23:00N 49°01' W 123°09'0 0.0
2017-Oct-09 22:30N 49°01' W 123°09'0 0.0
2017-Oct-09 22:00N 49°01' W 123°09'0 0.0
2017-Oct-09 21:30N 49°01' W 123°09'0 0.0
2017-Oct-09 21:00N 49°01' W 123°09'0 0.0
2017-Oct-09 20:30N 49°01' W 123°09'0 0.0
2017-Oct-09 20:00N 49°01' W 123°09'0 0.0
2017-Oct-09 19:30N 49°01' W 123°09'0 0.0
2017-Oct-09 19:00N 49°01' W 123°09'0 0.0
2017-Oct-09 18:30N 49°01' W 123°09'0 0.0
2017-Oct-09 18:00N 49°01' W 123°09'0 0.0
2017-Oct-09 17:29N 49°01' W 123°09'0 0.0
2017-Oct-09 17:00N 49°01' W 123°09'0 0.0
2017-Oct-09 16:30N 49°01' W 123°09'0 0.0
2017-Oct-09 16:00N 49°01' W 123°09'0 0.0
2017-Oct-09 15:30N 49°01' W 123°09'0 0.0
2017-Oct-09 15:00N 49°01' W 123°09'0 0.0
2017-Oct-09 14:29N 49°01' W 123°09'0 0.0
2017-Oct-09 14:00N 49°01' W 123°09'1 0.7
2017-Oct-09 13:09N 49°01' W 123°09'0 1.3
2017-Oct-09 13:01N 49°01' W 123°09'1 1.6
2017-Oct-09 12:30N 49°02' W 123°09'0 0.1
2017-Oct-09 12:00N 49°01' W 123°09'0 0.0
2017-Oct-09 11:30N 49°01' W 123°09'0 0.0
2017-Oct-09 11:00N 49°01' W 123°09'0 0.0
2017-Oct-09 10:30N 49°01' W 123°09'0 0.0
2017-Oct-09 09:57N 49°01' W 123°09'0 0.0
2017-Oct-09 09:28N 49°01' W 123°09'0 0.0
2017-Oct-09 09:00N 49°01' W 123°09'0 0.0
2017-Oct-09 08:30N 49°01' W 123°09'0 0.1
2017-Oct-09 08:00N 49°02' W 123°09'1 1.2
2017-Oct-09 07:30N 49°01' W 123°09'0 0.1
2017-Oct-09 07:00N 49°01' W 123°09'0 0.4
2017-Oct-09 06:30N 49°01' W 123°09'0 0.3
2017-Oct-09 06:00N 49°01' W 123°09'2 4.1
2017-Oct-09 05:30N 48°59' W 123°10'1 2.3
2017-Oct-09 04:59N 49°00' W 123°09'1 1.3
2017-Oct-09 04:30N 49°01' W 123°09'1 1.2
2017-Oct-09 04:00N 49°01' W 123°09'0 0.5
2017-Oct-09 03:30N 49°01' W 123°09'  
Track history (hours):
 
Tides and Currents Weather Stations Pressure Air Temp Water Temp Dewpoint Dewpoint Depression Visibility Wind Speed Wind Dir Waves Ship Positions

Seaspan Osprey

Last reported at 2017-Oct-19 03:30 UTC. Time now 2017-Oct-19 03:46 UTC.
Position N 49°01' W 123°09'.

Length 26 m; draft 5.4 m.

Type: Tug. MMSI: 316020868.

Date/timePositionNaut miles runAvg speedWind from/ knotsBaromVisibWave heightAir tempDewpointWater temp
2017-Oct-19 03:30N 49°01' W 123°09'0 0.0
2017-Oct-19 03:00N 49°01' W 123°09'0 0.0
2017-Oct-19 02:30N 49°01' W 123°09'0 0.0
2017-Oct-19 02:00N 49°01' W 123°09'0 0.0
2017-Oct-19 01:30N 49°01' W 123°09'0 0.0
2017-Oct-19 01:00N 49°01' W 123°09'0 0.5
2017-Oct-19 00:10N 49°01' W 123°09'0 0.2
2017-Oct-19 00:00N 49°01' W 123°09'1 2.3
2017-Oct-18 23:29N 48°60' W 123°10'2 3.5
2017-Oct-18 23:00N 49°01' W 123°09'0 0.1
2017-Oct-18 22:30N 49°01' W 123°09'0 0.0
2017-Oct-18 22:00N 49°01' W 123°09'0 0.0
2017-Oct-18 21:30N 49°01' W 123°09'0 0.0
2017-Oct-18 21:00N 49°01' W 123°09'0 0.0
2017-Oct-18 20:30N 49°01' W 123°09'0 0.0
2017-Oct-18 20:00N 49°01' W 123°09'0 0.0
2017-Oct-18 19:30N 49°01' W 123°09'0 0.0
2017-Oct-18 19:00N 49°01' W 123°09'0 0.0
2017-Oct-18 18:30N 49°01' W 123°09'0 0.0
2017-Oct-18 18:00N 49°01' W 123°09'0 0.0
2017-Oct-18 17:30N 49°01' W 123°09'0 0.0
2017-Oct-18 17:00N 49°01' W 123°09'0 0.0
2017-Oct-18 16:30N 49°01' W 123°09'0 0.0
2017-Oct-18 16:00N 49°01' W 123°09'0 0.0
2017-Oct-18 15:30N 49°01' W 123°09'0 0.0
2017-Oct-18 15:00N 49°01' W 123°09'0 0.0
2017-Oct-18 14:00N 49°01' W 123°09'0 0.4
2017-Oct-18 13:20N 49°01' W 123°09'0 0.3
2017-Oct-18 13:00N 49°01' W 123°09'0 0.5
2017-Oct-18 12:30N 49°01' W 123°09'0 0.0
2017-Oct-18 12:00N 49°01' W 123°09'0 0.0
2017-Oct-18 11:30N 49°01' W 123°09'0 0.0
2017-Oct-18 11:00N 49°01' W 123°09'0 0.0
2017-Oct-18 10:28N 49°01' W 123°09'0 0.0
2017-Oct-18 10:00N 49°01' W 123°09'0 0.0
2017-Oct-18 09:29N 49°01' W 123°09'0 0.0
2017-Oct-18 09:00N 49°01' W 123°09'1 1.2
2017-Oct-18 07:55N 49°01' W 123°10'1 1.2
2017-Oct-18 07:30N 49°01' W 123°11'1 0.5
2017-Oct-18 06:10N 49°01' W 123°10'1 4.9
2017-Oct-18 06:00N 49°01' W 123°09'0 0.9
2017-Oct-18 05:28N 49°01' W 123°09'0 0.0
2017-Oct-18 05:00N 49°01' W 123°09'0 0.0
2017-Oct-18 04:30N 49°01' W 123°09'0 0.0
2017-Oct-18 03:59N 49°01' W 123°09'0 0.0
2017-Oct-18 03:30N 49°01' W 123°09'0 0.0
2017-Oct-18 03:00N 49°01' W 123°09'0 0.0
2017-Oct-18 02:30N 49°01' W 123°09'0 0.0
2017-Oct-18 02:00N 49°01' W 123°09'0 0.4
2017-Oct-18 01:30N 49°01' W 123°09'0 0.0
2017-Oct-18 01:00N 49°01' W 123°09'2 2.8
2017-Oct-18 00:25N 48°60' W 123°10'1 1.7
2017-Oct-18 00:00N 49°00' W 123°09'1 2.0
2017-Oct-17 23:23N 49°01' W 123°09'0 0.0
2017-Oct-17 23:00N 49°01' W 123°09'0 0.0
2017-Oct-17 22:19N 49°01' W 123°09'0 0.0
2017-Oct-17 22:00N 49°01' W 123°09'0 0.0
2017-Oct-17 21:30N 49°01' W 123°09'0 0.0
2017-Oct-17 20:59N 49°01' W 123°09'0 0.0
2017-Oct-17 20:30N 49°01' W 123°09'0 0.0
2017-Oct-17 19:59N 49°01' W 123°09'0 0.0
2017-Oct-17 19:29N 49°01' W 123°09'0 0.0
2017-Oct-17 19:00N 49°01' W 123°09'0 0.0
2017-Oct-17 18:30N 49°01' W 123°09'0 0.0
2017-Oct-17 18:00N 49°01' W 123°09'0 0.0
2017-Oct-17 17:30N 49°01' W 123°09'0 0.0
2017-Oct-17 17:00N 49°01' W 123°09'1 2.2
2017-Oct-17 16:24N 49°00' W 123°10'1 2.5
2017-Oct-17 15:57N 49°01' W 123°09'0 0.4
2017-Oct-17 15:30N 49°01' W 123°09'0 0.0
2017-Oct-17 15:00N 49°01' W 123°09'0 0.0
2017-Oct-17 14:29N 49°01' W 123°09'0 0.0
2017-Oct-17 14:00N 49°01' W 123°09'0 0.0
2017-Oct-17 13:30N 49°01' W 123°09'0 0.0
2017-Oct-17 13:00N 49°01' W 123°09'0 0.0
2017-Oct-17 12:30N 49°01' W 123°09'0 0.0
2017-Oct-17 12:00N 49°01' W 123°09'0 0.0
2017-Oct-17 11:29N 49°01' W 123°09'0 0.0
2017-Oct-17 10:59N 49°01' W 123°09'0 0.0
2017-Oct-17 10:29N 49°01' W 123°09'0 0.0
2017-Oct-17 10:00N 49°01' W 123°09'0 0.0
2017-Oct-17 09:30N 49°01' W 123°09'0 0.0
2017-Oct-17 09:00N 49°01' W 123°09'0 0.0
2017-Oct-17 08:26N 49°01' W 123°09'0 0.0
2017-Oct-17 08:00N 49°01' W 123°09'0 0.0
2017-Oct-17 07:30N 49°01' W 123°09'0 0.0
2017-Oct-17 07:00N 49°01' W 123°09'0 0.0
2017-Oct-17 06:30N 49°02' W 123°09'0 0.9
2017-Oct-17 06:00N 49°01' W 123°09'1 1.6
2017-Oct-17 05:30N 49°00' W 123°10'0 0.5
2017-Oct-17 05:00N 49°00' W 123°10'1 3.0
2017-Oct-17 04:30N 49°01' W 123°09'0 0.0
2017-Oct-17 04:00N 49°01' W 123°09'0 0.0
2017-Oct-17 03:30N 49°01' W 123°09'0 0.0
2017-Oct-17 03:00N 49°01' W 123°09'0 0.0
2017-Oct-17 02:29N 49°01' W 123°09'0 0.0
2017-Oct-17 02:00N 49°01' W 123°09'0 0.0
2017-Oct-17 01:30N 49°01' W 123°09'0 0.0
2017-Oct-17 01:00N 49°01' W 123°09'0 0.0
2017-Oct-17 00:30N 49°01' W 123°09'0 0.0
2017-Oct-17 00:00N 49°01' W 123°09'0 0.0
2017-Oct-16 23:30N 49°01' W 123°09'0 0.0
2017-Oct-16 23:00N 49°01' W 123°09'0 0.0
2017-Oct-16 22:30N 49°01' W 123°09'0 0.0
2017-Oct-16 22:00N 49°01' W 123°09'0 0.0
2017-Oct-16 21:30N 49°01' W 123°09'0 0.0
2017-Oct-16 21:00N 49°01' W 123°09'0 0.0
2017-Oct-16 20:30N 49°01' W 123°09'0 0.0
2017-Oct-16 20:00N 49°01' W 123°09'0 0.0
2017-Oct-16 19:30N 49°01' W 123°09'0 0.0
2017-Oct-16 19:00N 49°01' W 123°09'0 0.0
2017-Oct-16 18:30N 49°01' W 123°09'0 0.0
2017-Oct-16 18:00N 49°01' W 123°09'0 0.0
2017-Oct-16 17:30N 49°01' W 123°09'0 0.0
2017-Oct-16 17:00N 49°01' W 123°09'0 0.0
2017-Oct-16 16:30N 49°01' W 123°09'0 0.0
2017-Oct-16 16:00N 49°01' W 123°09'0 0.5
2017-Oct-16 15:04N 49°01' W 123°09'0 1.8
2017-Oct-16 14:58N 49°01' W 123°09'1 1.2
2017-Oct-16 14:29N 49°00' W 123°10'1 0.9
2017-Oct-16 13:26N 48°60' W 123°10'2 3.0
2017-Oct-16 12:52N 49°01' W 123°09'0 0.3
2017-Oct-16 12:30N 49°01' W 123°09'0 0.0
2017-Oct-16 12:01N 49°01' W 123°09'0 0.7
2017-Oct-16 11:31N 49°01' W 123°09'0 0.0
2017-Oct-16 11:00N 49°01' W 123°09'0 0.0
2017-Oct-16 10:30N 49°01' W 123°09'0 0.0
2017-Oct-16 10:01N 49°01' W 123°09'0 0.0
2017-Oct-16 09:31N 49°01' W 123°09'0 0.0
2017-Oct-16 09:00N 49°01' W 123°09'0 0.0
2017-Oct-16 08:31N 49°01' W 123°09'0 0.0
2017-Oct-16 08:01N 49°01' W 123°09'0 0.0
2017-Oct-16 07:21N 49°01' W 123°09'0 0.0
2017-Oct-16 07:00N 49°01' W 123°09'0 0.0
2017-Oct-16 06:30N 49°01' W 123°09'0 0.0
2017-Oct-16 06:00N 49°01' W 123°09'0 0.0
2017-Oct-16 05:30N 49°01' W 123°09'0 0.0
2017-Oct-16 05:01N 49°01' W 123°09'0 0.0
2017-Oct-16 04:30N 49°01' W 123°09'0 0.0
2017-Oct-16 04:00N 49°01' W 123°09'0 0.0
2017-Oct-16 03:31N 49°01' W 123°09'0 0.0
2017-Oct-16 03:00N 49°01' W 123°09'0 0.0
2017-Oct-16 02:30N 49°01' W 123°09'0 0.0
2017-Oct-16 02:00N 49°01' W 123°09'0 0.0
2017-Oct-16 01:31N 49°01' W 123°09'0 0.4
2017-Oct-16 01:00N 49°01' W 123°09'0 0.5
2017-Oct-16 00:27N 49°01' W 123°09'0 1.0
2017-Oct-16 00:01N 49°01' W 123°09'0 0.0
2017-Oct-15 23:31N 49°01' W 123°09'0 0.0
2017-Oct-15 23:00N 49°01' W 123°09'0 0.0
2017-Oct-15 22:31N 49°01' W 123°09'0 0.0
2017-Oct-15 21:58N 49°01' W 123°09'0 0.0
2017-Oct-15 21:30N 49°01' W 123°09'0 0.0
2017-Oct-15 20:58N 49°01' W 123°09'0 0.0
2017-Oct-15 20:30N 49°01' W 123°09'0 0.0
2017-Oct-15 20:00N 49°01' W 123°09'0 0.0
2017-Oct-15 19:31N 49°01' W 123°09'0 0.0
2017-Oct-15 19:01N 49°01' W 123°09'0 0.0
2017-Oct-15 18:31N 49°01' W 123°09'0 0.0
2017-Oct-15 18:00N 49°01' W 123°09'0 0.0
2017-Oct-15 17:31N 49°01' W 123°09'0 0.0
2017-Oct-15 17:01N 49°01' W 123°09'1 1.2
2017-Oct-15 16:28N 49°01' W 123°09'0 0.1
2017-Oct-15 15:57N 49°01' W 123°09'1 1.5
2017-Oct-15 15:30N 49°01' W 123°09'0 0.0
2017-Oct-15 15:00N 49°01' W 123°09'0 0.0
2017-Oct-15 14:00N 49°01' W 123°09'0 0.0
2017-Oct-15 13:30N 49°01' W 123°09'0 0.0
2017-Oct-15 13:00N 49°01' W 123°09'0 0.0
2017-Oct-15 12:30N 49°01' W 123°09'0 0.0
2017-Oct-15 12:01N 49°01' W 123°09'0 0.0
2017-Oct-15 11:31N 49°01' W 123°09'0 0.0
2017-Oct-15 11:01N 49°01' W 123°09'0 0.0
2017-Oct-15 10:31N 49°01' W 123°09'0 0.0
2017-Oct-15 10:01N 49°01' W 123°09'0 0.0
2017-Oct-15 09:31N 49°01' W 123°09'0 0.0
2017-Oct-15 09:00N 49°01' W 123°09'0 0.0
2017-Oct-15 08:31N 49°01' W 123°09'0 0.0
2017-Oct-15 08:00N 49°01' W 123°09'0 0.0
2017-Oct-15 07:30N 49°01' W 123°09'0 0.0
2017-Oct-15 07:00N 49°01' W 123°09'0 0.0
2017-Oct-15 06:30N 49°01' W 123°09'0 0.0
2017-Oct-15 06:01N 49°01' W 123°09'0 0.0
2017-Oct-15 05:30N 49°01' W 123°09'0 0.0
2017-Oct-15 05:00N 49°01' W 123°09'0 0.0
2017-Oct-15 04:30N 49°01' W 123°09'0 0.0
2017-Oct-15 04:01N 49°01' W 123°09'0 0.0
2017-Oct-15 03:30N 49°01' W 123°09'0 0.0
2017-Oct-15 03:00N 49°01' W 123°09'0 0.0
2017-Oct-15 02:31N 49°01' W 123°09'0 0.0
2017-Oct-15 02:01N 49°01' W 123°09'0 0.0
2017-Oct-15 01:31N 49°01' W 123°09'0 0.0
2017-Oct-15 01:00N 49°01' W 123°09'0 0.0
2017-Oct-15 00:30N 49°01' W 123°09'0 0.0
2017-Oct-15 00:01N 49°01' W 123°09'0 0.0
2017-Oct-14 23:31N 49°01' W 123°09'2 1.0
2017-Oct-14 21:14N 48°60' W 123°11'1 5.0
2017-Oct-14 20:57N 49°01' W 123°09'1 1.9
2017-Oct-14 20:26N 49°01' W 123°09'0 0.0
2017-Oct-14 20:00N 49°01' W 123°09'1 3.0
2017-Oct-14 19:30N 49°00' W 123°10'0 0.6
2017-Oct-14 18:59N 49°01' W 123°10'1 2.1
2017-Oct-14 18:26N 49°01' W 123°09'0 0.0
2017-Oct-14 17:58N 49°01' W 123°09'0 0.0
2017-Oct-14 17:27N 49°01' W 123°09'0 0.0
2017-Oct-14 16:59N 49°01' W 123°09'0 0.0
2017-Oct-14 16:18N 49°01' W 123°09'0 0.0
2017-Oct-14 15:59N 49°01' W 123°09'0 0.0
2017-Oct-14 15:30N 49°01' W 123°09'0 0.0
2017-Oct-14 14:59N 49°01' W 123°09'0 0.0
2017-Oct-14 14:29N 49°01' W 123°09'0 0.0
2017-Oct-14 13:59N 49°01' W 123°09'0 0.0
2017-Oct-14 13:28N 49°01' W 123°09'0 0.0
2017-Oct-14 12:33N 49°01' W 123°09'0 0.1
2017-Oct-14 12:30N 49°01' W 123°09'0 0.0
2017-Oct-14 12:00N 49°01' W 123°09'0 0.7
2017-Oct-14 11:30N 49°01' W 123°09'0 0.2
2017-Oct-14 11:00N 49°01' W 123°09'1 2.8
2017-Oct-14 10:30N 48°60' W 123°09'2 3.7
2017-Oct-14 09:59N 49°01' W 123°09'0 0.0
2017-Oct-14 04:45N 49°01' W 123°09'0 0.0
2017-Oct-14 04:30N 49°01' W 123°09'0 0.0
2017-Oct-14 03:27N 49°01' W 123°09'1 1.4
2017-Oct-14 03:00N 49°01' W 123°09'0 0.1
2017-Oct-14 02:27N 49°01' W 123°09'1 2.4
2017-Oct-14 02:00N 49°00' W 123°10'1 2.2
2017-Oct-14 01:27N 49°01' W 123°09'1 0.4
2017-Oct-13 23:03N 49°01' W 123°10'0 1.6
2017-Oct-13 22:46N 49°01' W 123°11'1 2.5
2017-Oct-13 22:30N 49°00' W 123°12'2 0.3
2017-Oct-13 16:08N 49°01' W 123°09'2 7.4
2017-Oct-13 15:56N 49°00' W 123°10'1 2.1
2017-Oct-13 15:23N 49°01' W 123°09'0 0.1
2017-Oct-13 15:00N 49°01' W 123°09'0 0.1
2017-Oct-13 12:18N 49°01' W 123°09'0 0.0
2017-Oct-13 09:21N 49°01' W 123°09'0 0.0
2017-Oct-13 08:55N 49°01' W 123°09'0 0.0
2017-Oct-13 06:07N 49°01' W 123°09'0 2.2
2017-Oct-13 06:00N 49°01' W 123°09'1 0.9
2017-Oct-13 05:18N 49°01' W 123°09'1 2.9
2017-Oct-13 05:00N 49°01' W 123°09'0 0.0
2017-Oct-13 01:24N 49°01' W 123°09'1 1.6
2017-Oct-13 00:59N 49°01' W 123°09'0 0.0
2017-Oct-13 00:23N 49°01' W 123°09'0 0.7
2017-Oct-12 23:59N 49°01' W 123°09'1 2.7
2017-Oct-12 23:29N 49°00' W 123°11'1 1.7
2017-Oct-12 23:00N 49°00' W 123°10'1 1.4
2017-Oct-12 22:23N 49°01' W 123°09'0 0.1
2017-Oct-12 22:00N 49°01' W 123°09'1 1.3
2017-Oct-12 21:30N 49°01' W 123°09'0 0.0
2017-Oct-12 21:00N 49°01' W 123°09'0 0.0
2017-Oct-12 20:30N 49°01' W 123°09'0 0.0
2017-Oct-12 20:00N 49°01' W 123°09'2 3.0
2017-Oct-12 19:30N 49°00' W 123°10'1 2.5
2017-Oct-12 18:58N 49°01' W 123°09'0 0.7
2017-Oct-12 18:30N 49°02' W 123°09'0 0.1
2017-Oct-12 18:01N 49°01' W 123°09'0 0.0
2017-Oct-12 17:30N 49°01' W 123°09'0 0.4
2017-Oct-12 17:00N 49°01' W 123°09'0 0.4
2017-Oct-12 16:28N 49°01' W 123°09'0 0.0
2017-Oct-12 16:00N 49°01' W 123°09'0 0.0
2017-Oct-12 15:31N 49°01' W 123°09'0 0.0
2017-Oct-12 15:00N 49°01' W 123°09'0 0.0
2017-Oct-12 14:30N 49°01' W 123°09'0 0.0
2017-Oct-12 13:59N 49°01' W 123°09'0 0.0
2017-Oct-12 13:30N 49°01' W 123°09'0 0.0
2017-Oct-12 13:00N 49°01' W 123°09'0 0.0
2017-Oct-12 12:27N 49°01' W 123°09'0 0.0
2017-Oct-12 11:54N 49°01' W 123°09'0 0.0
2017-Oct-12 11:30N 49°01' W 123°09'0 0.0
2017-Oct-12 11:00N 49°01' W 123°09'0 0.0
2017-Oct-12 10:30N 49°01' W 123°09'0 0.0
2017-Oct-12 10:00N 49°01' W 123°09'0 0.0
2017-Oct-12 09:30N 49°01' W 123°09'0 0.0
2017-Oct-12 09:00N 49°01' W 123°09'0 0.0
2017-Oct-12 08:30N 49°01' W 123°09'0 0.0
2017-Oct-12 08:00N 49°01' W 123°09'0 0.0
2017-Oct-12 07:30N 49°01' W 123°09'0 0.0
2017-Oct-12 07:00N 49°01' W 123°09'0 0.0
2017-Oct-12 06:30N 49°01' W 123°09'0 0.0
2017-Oct-12 06:00N 49°01' W 123°09'0 0.0
2017-Oct-12 05:30N 49°01' W 123°09'0 0.0
2017-Oct-12 05:00N 49°01' W 123°09'0 0.0
2017-Oct-12 04:31N 49°01' W 123°09'0 0.0
2017-Oct-12 04:00N 49°01' W 123°09'0 0.0
2017-Oct-12 03:30N 49°01' W 123°09'0 0.0
2017-Oct-12 03:00N 49°01' W 123°09'0 0.0
2017-Oct-12 02:31N 49°01' W 123°09'0 0.0
2017-Oct-12 02:01N 49°01' W 123°09'0 0.0
2017-Oct-12 01:30N 49°01' W 123°09'1 2.5
2017-Oct-12 00:56N 49°00' W 123°10'1 2.0
2017-Oct-12 00:30N 49°01' W 123°09'1 1.1
2017-Oct-12 00:00N 49°01' W 123°09'0 0.0
2017-Oct-11 23:30N 49°01' W 123°09'0 0.0
2017-Oct-11 23:00N 49°01' W 123°09'0 0.3
2017-Oct-11 21:54N 49°01' W 123°09'1 1.5
2017-Oct-11 21:29N 49°01' W 123°09'3 5.0
2017-Oct-11 20:55N 48°58' W 123°09'3 6.1
2017-Oct-11 20:30N 49°00' W 123°09'1 2.6
2017-Oct-11 20:00N 49°01' W 123°09'0 0.0
2017-Oct-11 19:30N 49°01' W 123°09'0 0.0
2017-Oct-11 19:00N 49°01' W 123°09'0 0.0
2017-Oct-11 18:30N 49°01' W 123°09'0 0.0
2017-Oct-11 18:00N 49°01' W 123°09'0 0.0
2017-Oct-11 17:30N 49°01' W 123°09'0 0.0
2017-Oct-11 17:00N 49°01' W 123°09'0 0.0
2017-Oct-11 00:00N 49°01' W 123°09'0 0.0
2017-Oct-10 23:30N 49°01' W 123°09'0 0.0
2017-Oct-10 23:00N 49°01' W 123°09'0 0.0
2017-Oct-10 22:30N 49°01' W 123°09'0 0.0
2017-Oct-10 22:00N 49°01' W 123°09'0 0.0
2017-Oct-10 21:16N 49°01' W 123°09'0 0.0
2017-Oct-10 21:00N 49°01' W 123°09'0 0.0
2017-Oct-10 20:30N 49°01' W 123°09'0 0.0
2017-Oct-10 20:00N 49°01' W 123°09'0 0.0
2017-Oct-10 19:30N 49°01' W 123°09'0 0.0
2017-Oct-10 19:00N 49°01' W 123°09'0 0.0
2017-Oct-10 18:30N 49°01' W 123°09'0 0.0
2017-Oct-10 18:00N 49°01' W 123°09'0 0.0
2017-Oct-10 17:30N 49°01' W 123°09'0 0.0
2017-Oct-10 17:00N 49°01' W 123°09'0 0.0
2017-Oct-10 16:30N 49°01' W 123°09'0 0.0
2017-Oct-10 16:00N 49°01' W 123°09'0 0.0
2017-Oct-10 15:30N 49°01' W 123°09'0 0.0
2017-Oct-10 15:00N 49°01' W 123°09'0 0.0
2017-Oct-10 14:00N 49°01' W 123°09'0 0.0
2017-Oct-10 13:30N 49°01' W 123°09'0 0.0
2017-Oct-10 13:00N 49°01' W 123°09'0 0.0
2017-Oct-10 12:30N 49°01' W 123°09'0 0.0
2017-Oct-10 12:00N 49°01' W 123°09'0 0.0
2017-Oct-10 11:30N 49°01' W 123°09'0 0.0
2017-Oct-10 11:00N 49°01' W 123°09'1 2.6
2017-Oct-10 10:26N 49°00' W 123°10'1 2.3
2017-Oct-10 09:59N 49°01' W 123°09'1 1.4
2017-Oct-10 09:24N 49°01' W 123°10'1 1.4
2017-Oct-10 09:00N 49°01' W 123°09'0 0.0
2017-Oct-10 08:23N 49°01' W 123°09'0 0.3
2017-Oct-10 07:52N 49°01' W 123°09'1 2.2
2017-Oct-10 07:30N 49°00' W 123°10'1 1.4
2017-Oct-10 06:44N 49°01' W 123°09'1 2.2
2017-Oct-10 06:30N 49°01' W 123°09'0 0.0
2017-Oct-10 05:59N 49°01' W 123°09'0 0.0
2017-Oct-10 05:30N 49°01' W 123°09'0 0.0
2017-Oct-10 05:00N 49°01' W 123°09'0 0.0
2017-Oct-10 04:30N 49°01' W 123°09'0 0.0
2017-Oct-10 04:00N 49°01' W 123°09'0 0.0
2017-Oct-10 03:30N 49°01' W 123°09'0 0.0
2017-Oct-10 03:00N 49°01' W 123°09'0 0.0
2017-Oct-10 02:30N 49°01' W 123°09'0 0.0
2017-Oct-10 02:00N 49°01' W 123°09'0 0.0
2017-Oct-10 01:30N 49°01' W 123°09'0 0.0
2017-Oct-10 01:00N 49°01' W 123°09'0 0.0
2017-Oct-10 00:30N 49°01' W 123°09'0 0.0
2017-Oct-10 00:00N 49°01' W 123°09'0 0.0
2017-Oct-09 23:30N 49°01' W 123°09'0 0.0
2017-Oct-09 23:00N 49°01' W 123°09'0 0.0
2017-Oct-09 22:30N 49°01' W 123°09'0 0.0
2017-Oct-09 22:00N 49°01' W 123°09'0 0.0
2017-Oct-09 21:30N 49°01' W 123°09'0 0.0
2017-Oct-09 21:00N 49°01' W 123°09'0 0.0
2017-Oct-09 20:30N 49°01' W 123°09'0 0.0
2017-Oct-09 20:00N 49°01' W 123°09'0 0.0
2017-Oct-09 19:30N 49°01' W 123°09'0 0.0
2017-Oct-09 19:00N 49°01' W 123°09'0 0.0
2017-Oct-09 18:30N 49°01' W 123°09'0 0.0
2017-Oct-09 18:00N 49°01' W 123°09'0 0.0
2017-Oct-09 17:29N 49°01' W 123°09'0 0.0
2017-Oct-09 17:00N 49°01' W 123°09'0 0.0
2017-Oct-09 16:30N 49°01' W 123°09'0 0.0
2017-Oct-09 16:00N 49°01' W 123°09'0 0.0
2017-Oct-09 15:30N 49°01' W 123°09'0 0.0
2017-Oct-09 15:00N 49°01' W 123°09'0 0.0
2017-Oct-09 14:29N 49°01' W 123°09'0 0.0
2017-Oct-09 14:00N 49°01' W 123°09'1 0.7
2017-Oct-09 13:09N 49°01' W 123°09'0 1.3
2017-Oct-09 13:01N 49°01' W 123°09'1 1.6
2017-Oct-09 12:30N 49°02' W 123°09'0 0.1
2017-Oct-09 12:00N 49°01' W 123°09'0 0.0
2017-Oct-09 11:30N 49°01' W 123°09'0 0.0
2017-Oct-09 11:00N 49°01' W 123°09'0 0.0
2017-Oct-09 10:30N 49°01' W 123°09'0 0.0
2017-Oct-09 09:57N 49°01' W 123°09'0 0.0
2017-Oct-09 09:28N 49°01' W 123°09'0 0.0
2017-Oct-09 09:00N 49°01' W 123°09'0 0.0
2017-Oct-09 08:30N 49°01' W 123°09'0 0.1
2017-Oct-09 08:00N 49°02' W 123°09'1 1.2
2017-Oct-09 07:30N 49°01' W 123°09'0 0.1
2017-Oct-09 07:00N 49°01' W 123°09'0 0.4
2017-Oct-09 06:30N 49°01' W 123°09'0 0.3
2017-Oct-09 06:00N 49°01' W 123°09'2 4.1
2017-Oct-09 05:30N 48°59' W 123°10'1 2.3
2017-Oct-09 04:59N 49°00' W 123°09'1 1.3
2017-Oct-09 04:30N 49°01' W 123°09'1 1.2
2017-Oct-09 04:00N 49°01' W 123°09'0 0.5
2017-Oct-09 03:30N 49°01' W 123°09'  

Dump ship's entire track history